Time;durP1;ratioP1;P1;durP2;ratioP2;P2;SDS_P1;SDS_P2;PMS_P1;PMS_P2;Temp;Humidity;BMP_temperature;BMP_pressure;BME280_temperature;BME280_humidity;BME280_pressure;Samples;Min_cycle;Max_cycle;Signal;HPM_P1;HPM_P2
2021/08/07 00:00:14;;;;;;;13.25;2.85;;;;;;;;;;5115922;28;20123;-69
2021/08/07 00:02:40;;;;;;;6.28;2.35;;;;;;;;;;5115910;28;20031;-68
2021/08/07 00:05:07;;;;;;;8.85;2.97;;;;;;;;;;5115819;28;20059;-69
2021/08/07 00:07:34;;;;;;;5.50;2.45;;;;;;;;;;5115931;28;20028;-69
2021/08/07 00:10:00;;;;;;;10.13;2.60;;;;;;;;;;5113818;28;20054;-70
2021/08/07 00:12:26;;;;;;;7.03;2.80;;;;;;;;;;5113545;28;20036;-69
2021/08/07 00:14:53;;;;;;;6.43;2.50;;;;;;;;;;5113646;28;20023;-69
2021/08/07 00:17:19;;;;;;;9.65;2.65;;;;;;;;;;5114796;28;20016;-71
2021/08/07 00:19:45;;;;;;;9.43;2.50;;;;;;;;;;5115693;28;20031;-69
2021/08/07 00:22:11;;;;;;;10.88;2.50;;;;;;;;;;5114756;28;20551;-69
2021/08/07 00:24:37;;;;;;;9.77;3.58;;;;;;;;;;5114214;28;20023;-69
2021/08/07 00:27:03;;;;;;;12.65;2.60;;;;;;;;;;5114114;28;20172;-69
2021/08/07 00:29:35;;;;;;;7.53;2.47;;;;;;;;;;5115338;27;20024;-68
2021/08/07 00:32:01;;;;;;;7.35;2.80;;;;;;;;;;5115242;28;20028;-68
2021/08/07 00:34:27;;;;;;;6.43;2.38;;;;;;;;;;5115444;28;20417;-68
2021/08/07 00:36:53;;;;;;;7.80;2.72;;;;;;;;;;5115127;27;20102;-68
2021/08/07 00:39:19;;;;;;;7.95;2.83;;;;;;;;;;5115210;28;20059;-69
2021/08/07 00:41:45;;;;;;;8.23;2.75;;;;;;;;;;5115280;28;20023;-69
2021/08/07 00:44:11;;;;;;;9.45;2.45;;;;;;;;;;5115201;28;20019;-68
2021/08/07 00:46:37;;;;;;;5.03;2.78;;;;;;;;;;5115084;28;20391;-69
2021/08/07 00:49:03;;;;;;;8.25;2.50;;;;;;;;;;5115086;28;20031;-68
2021/08/07 00:51:30;;;;;;;5.50;2.40;;;;;;;;;;5114567;28;20027;-69
2021/08/07 00:53:57;;;;;;;7.00;2.47;;;;;;;;;;5114771;28;20031;-68
2021/08/07 00:56:23;;;;;;;6.55;2.60;;;;;;;;;;5114476;28;20031;-68
2021/08/07 00:58:49;;;;;;;7.20;2.45;;;;;;;;;;5110993;28;20122;-69
2021/08/07 01:01:15;;;;;;;6.45;2.83;;;;;;;;;;5111683;28;20069;-69
2021/08/07 01:03:47;;;;;;;6.47;2.53;;;;;;;;;;5110975;28;20038;-69
2021/08/07 01:06:31;;;;;;;6.93;2.53;;;;;;;;;;5114149;28;20047;-69
2021/08/07 01:09:00;;;;;;;7.32;2.60;;;;;;;;;;5114537;28;20027;-69
2021/08/07 01:11:30;;;;;;;5.05;2.50;;;;;;;;;;5114373;28;20043;-69
2021/08/07 01:13:59;;;;;;;7.38;2.63;;;;;;;;;;5113569;28;20381;-68
2021/08/07 01:16:26;;;;;;;7.82;2.63;;;;;;;;;;5114287;28;20114;-69
2021/08/07 01:18:53;;;;;;;6.55;2.72;;;;;;;;;;5114364;28;20096;-69
2021/08/07 01:21:22;;;;;;;7.47;2.50;;;;;;;;;;5114032;28;20031;-69
2021/08/07 01:23:50;;;;;;;5.32;2.47;;;;;;;;;;5114124;28;20081;-69
2021/08/07 01:26:16;;;;;;;7.32;2.60;;;;;;;;;;5113917;28;20028;-69
2021/08/07 01:28:43;;;;;;;12.65;2.60;;;;;;;;;;5113923;28;20031;-69
2021/08/07 01:31:10;;;;;;;4.55;2.60;;;;;;;;;;5113953;28;20024;-68
2021/08/07 01:33:36;;;;;;;4.70;2.22;;;;;;;;;;5112830;28;20589;-69
2021/08/07 01:36:03;;;;;;;4.30;2.38;;;;;;;;;;5112731;28;20023;-68
2021/08/07 01:38:29;;;;;;;6.10;2.30;;;;;;;;;;5114008;28;20582;-68
2021/08/07 01:40:55;;;;;;;6.13;2.47;;;;;;;;;;5113945;28;20463;-67
2021/08/07 01:43:22;;;;;;;4.25;2.30;;;;;;;;;;5113701;28;20023;-69
2021/08/07 01:45:48;;;;;;;7.80;2.33;;;;;;;;;;5113782;28;20110;-69
2021/08/07 01:48:14;;;;;;;5.88;2.42;;;;;;;;;;5113598;28;20027;-69
2021/08/07 01:50:44;;;;;;;8.18;2.63;;;;;;;;;;5113649;28;20023;-69
2021/08/07 01:53:12;;;;;;;5.30;2.40;;;;;;;;;;5113925;28;20157;-68
2021/08/07 01:55:45;;;;;;;5.30;2.70;;;;;;;;;;5113946;28;20019;-69
2021/08/07 01:58:13;;;;;;;7.22;2.28;;;;;;;;;;5113270;28;20028;-69
2021/08/07 02:00:41;;;;;;;5.57;2.65;;;;;;;;;;5113581;28;20020;-69
2021/08/07 02:03:09;;;;;;;9.90;2.00;;;;;;;;;;5113760;28;20106;-69
2021/08/07 02:05:36;;;;;;;9.27;2.75;;;;;;;;;;5113316;28;20079;-68
2021/08/07 02:08:02;;;;;;;6.93;2.40;;;;;;;;;;5113327;28;20035;-70
2021/08/07 02:10:29;;;;;;;4.45;2.17;;;;;;;;;;5112325;28;20024;-69
2021/08/07 02:12:55;;;;;;;7.88;2.50;;;;;;;;;;5111646;28;20051;-68
2021/08/07 02:15:21;;;;;;;8.13;2.60;;;;;;;;;;5112318;28;20016;-68
2021/08/07 02:17:48;;;;;;;8.23;3.22;;;;;;;;;;5113544;28;20027;-68
2021/08/07 02:20:16;;;;;;;6.05;2.60;;;;;;;;;;5113254;28;20028;-68
2021/08/07 02:22:47;;;;;;;14.38;2.92;;;;;;;;;;5113293;28;20099;-69
2021/08/07 02:25:13;;;;;;;6.55;2.53;;;;;;;;;;5111816;28;20492;-69
2021/08/07 02:27:40;;;;;;;5.15;2.15;;;;;;;;;;5113338;28;20069;-69
2021/08/07 02:30:07;;;;;;;6.32;2.40;;;;;;;;;;5113521;28;20115;-68
2021/08/07 02:32:33;;;;;;;7.55;2.15;;;;;;;;;;5112182;28;20073;-68
2021/08/07 02:35:00;;;;;;;6.20;2.40;;;;;;;;;;5113043;28;20095;-68
2021/08/07 02:37:26;;;;;;;6.07;2.40;;;;;;;;;;5113008;28;20100;-69
2021/08/07 02:39:52;;;;;;;6.57;2.20;;;;;;;;;;5113281;28;20027;-70
2021/08/07 02:42:19;;;;;;;9.63;2.45;;;;;;;;;;5111664;28;20165;-69
2021/08/07 02:44:46;;;;;;;6.30;2.20;;;;;;;;;;5113120;28;20057;-71
2021/08/07 02:47:13;;;;;;;9.38;2.80;;;;;;;;;;5111308;28;20028;-70
2021/08/07 02:49:39;;;;;;;4.47;2.28;;;;;;;;;;5111776;28;20032;-70
2021/08/07 02:52:05;;;;;;;6.03;2.53;;;;;;;;;;5111497;28;20028;-69
2021/08/07 02:54:32;;;;;;;5.20;2.38;;;;;;;;;;5111262;28;20031;-68
2021/08/07 02:56:58;;;;;;;9.30;2.47;;;;;;;;;;5111785;28;20034;-69
2021/08/07 02:59:25;;;;;;;7.00;2.28;;;;;;;;;;5111564;28;20016;-69
2021/08/07 03:01:51;;;;;;;6.53;2.20;;;;;;;;;;5112964;28;20026;-69
2021/08/07 03:04:17;;;;;;;7.43;2.67;;;;;;;;;;5112505;28;20073;-69
2021/08/07 03:06:43;;;;;;;7.30;2.63;;;;;;;;;;5111837;28;20103;-68
2021/08/07 03:09:10;;;;;;;6.95;2.72;;;;;;;;;;5113101;28;20028;-68
2021/08/07 03:11:37;;;;;;;6.20;2.75;;;;;;;;;;5112975;28;20474;-69
2021/08/07 03:14:03;;;;;;;4.60;2.20;;;;;;;;;;5112483;28;20047;-68
2021/08/07 03:16:29;;;;;;;4.10;2.28;;;;;;;;;;5111638;28;20027;-68
2021/08/07 03:18:55;;;;;;;7.57;2.47;;;;;;;;;;5111770;28;20027;-69
2021/08/07 03:21:21;;;;;;;9.40;2.50;;;;;;;;;;5112706;28;20026;-70
2021/08/07 03:23:47;;;;;;;8.00;2.75;;;;;;;;;;5112642;28;20046;-69
2021/08/07 03:26:13;;;;;;;8.13;2.50;;;;;;;;;;5111939;28;20433;-68
2021/08/07 03:28:40;;;;;;;7.90;2.72;;;;;;;;;;5116616;28;20097;-69
2021/08/07 03:31:06;;;;;;;5.78;2.10;;;;;;;;;;5116551;28;20023;-68
2021/08/07 03:33:33;;;;;;;6.60;2.25;;;;;;;;;;5116074;28;20390;-69
2021/08/07 03:35:59;;;;;;;8.23;2.50;;;;;;;;;;5116386;28;20460;-69
2021/08/07 03:38:25;;;;;;;5.97;2.35;;;;;;;;;;5116414;28;20068;-68
2021/08/07 03:40:51;;;;;;;5.70;2.22;;;;;;;;;;5116621;28;20020;-68
2021/08/07 03:43:17;;;;;;;5.53;2.35;;;;;;;;;;5116503;28;20024;-70
2021/08/07 03:45:43;;;;;;;6.07;2.38;;;;;;;;;;5116006;28;20609;-69
2021/08/07 03:48:09;;;;;;;15.05;2.67;;;;;;;;;;5116305;27;20039;-68
2021/08/07 03:50:35;;;;;;;5.53;2.45;;;;;;;;;;5116332;28;20434;-68
2021/08/07 03:53:01;;;;;;;4.80;2.42;;;;;;;;;;5115709;27;20049;-68
2021/08/07 03:55:27;;;;;;;8.10;2.70;;;;;;;;;;5114498;28;20467;-69
2021/08/07 03:57:58;;;;;;;11.35;3.30;;;;;;;;;;5114505;28;20326;-69
2021/08/07 04:00:25;;;;;;;7.65;2.22;;;;;;;;;;5112494;28;20240;-69
2021/08/07 04:02:51;;;;;;;6.82;2.50;;;;;;;;;;5112976;28;20106;-69
2021/08/07 04:05:17;;;;;;;7.57;2.30;;;;;;;;;;5113730;28;20023;-69
2021/08/07 04:07:43;;;;;;;6.70;2.50;;;;;;;;;;5115459;28;20036;-69
2021/08/07 04:10:10;;;;;;;5.88;2.47;;;;;;;;;;5115508;28;20026;-71
2021/08/07 04:12:36;;;;;;;6.28;2.38;;;;;;;;;;5114462;28;20039;-72
2021/08/07 04:15:03;;;;;;;6.18;2.38;;;;;;;;;;5115278;27;20390;-71
2021/08/07 04:17:29;;;;;;;8.48;2.33;;;;;;;;;;5115157;28;20038;-71
2021/08/07 04:19:55;;;;;;;7.50;2.40;;;;;;;;;;5115409;28;20023;-72
2021/08/07 04:22:21;;;;;;;6.45;2.38;;;;;;;;;;5115187;28;20035;-70
2021/08/07 04:24:47;;;;;;;4.78;2.35;;;;;;;;;;5114026;28;20020;-70
2021/08/07 04:27:13;;;;;;;8.77;2.72;;;;;;;;;;5115486;28;20079;-69
2021/08/07 04:29:39;;;;;;;6.72;2.50;;;;;;;;;;5114750;28;20043;-70
2021/08/07 04:32:06;;;;;;;7.28;2.40;;;;;;;;;;5113106;28;20023;-68
2021/08/07 04:34:32;;;;;;;7.60;2.33;;;;;;;;;;5114511;28;20102;-68
2021/08/07 04:36:58;;;;;;;4.07;1.98;;;;;;;;;;5114761;28;20020;-70
2021/08/07 04:39:24;;;;;;;7.22;2.20;;;;;;;;;;5114760;28;20038;-72
2021/08/07 04:41:50;;;;;;;4.55;2.40;;;;;;;;;;5114772;28;20098;-72
2021/08/07 04:44:16;;;;;;;5.95;2.30;;;;;;;;;;5114722;27;20081;-69
2021/08/07 04:46:42;;;;;;;5.13;2.60;;;;;;;;;;5114892;28;20015;-69
2021/08/07 04:49:08;;;;;;;9.82;2.45;;;;;;;;;;5114934;28;20039;-68
2021/08/07 04:51:34;;;;;;;5.53;2.45;;;;;;;;;;5114711;28;20020;-68
2021/08/07 04:54:00;;;;;;;6.70;2.75;;;;;;;;;;5114516;28;20498;-68
2021/08/07 04:56:26;;;;;;;7.13;2.35;;;;;;;;;;5114917;28;20041;-69
2021/08/07 04:58:52;;;;;;;6.70;2.20;;;;;;;;;;5114778;28;20418;-69
2021/08/07 05:01:18;;;;;;;4.57;2.35;;;;;;;;;;5113676;28;20539;-70
2021/08/07 05:03:45;;;;;;;6.88;2.45;;;;;;;;;;5111854;28;20530;-71
2021/08/07 05:06:11;;;;;;;4.88;2.33;;;;;;;;;;5112033;28;20045;-70
2021/08/07 05:08:40;;;;;;;12.32;2.38;;;;;;;;;;5113615;28;20035;-69
2021/08/07 05:11:06;;;;;;;6.97;2.60;;;;;;;;;;5114088;28;20515;-69
2021/08/07 05:13:36;;;;;;;8.38;2.47;;;;;;;;;;5114349;28;20059;-70
2021/08/07 05:16:02;;;;;;;9.30;2.60;;;;;;;;;;5114411;28;20092;-70
2021/08/07 05:18:28;;;;;;;5.47;2.42;;;;;;;;;;5114541;28;20027;-69
2021/08/07 05:20:54;;;;;;;8.40;2.85;;;;;;;;;;5114327;28;20051;-69
2021/08/07 05:23:20;;;;;;;10.50;3.63;;;;;;;;;;5113342;28;20106;-69
2021/08/07 05:25:46;;;;;;;6.88;2.50;;;;;;;;;;5112766;28;20027;-70
2021/08/07 05:28:13;;;;;;;8.77;2.63;;;;;;;;;;5113947;28;20039;-70
2021/08/07 05:30:39;;;;;;;8.32;2.55;;;;;;;;;;5114288;28;20099;-69
2021/08/07 05:33:05;;;;;;;7.07;2.90;;;;;;;;;;5113969;28;20036;-69
2021/08/07 05:35:31;;;;;;;7.05;2.60;;;;;;;;;;5114148;28;20085;-70
2021/08/07 05:37:57;;;;;;;8.00;2.22;;;;;;;;;;5114194;28;20027;-71
2021/08/07 05:40:23;;;;;;;5.85;2.58;;;;;;;;;;5114195;28;20047;-70
2021/08/07 05:42:50;;;;;;;8.93;2.47;;;;;;;;;;5112461;28;20388;-70
2021/08/07 05:45:16;;;;;;;6.50;2.97;;;;;;;;;;5113172;28;20030;-69
2021/08/07 05:47:42;;;;;;;4.88;2.53;;;;;;;;;;5113678;28;20043;-69
2021/08/07 05:50:09;;;;;;;12.70;3.03;;;;;;;;;;5113078;28;20016;-68
2021/08/07 05:52:35;;;;;;;14.27;3.17;;;;;;;;;;5113602;28;20028;-68
2021/08/07 05:55:01;;;;;;;5.85;2.72;;;;;;;;;;5112604;28;20019;-69
2021/08/07 05:57:28;;;;;;;6.07;2.60;;;;;;;;;;5112883;28;20024;-69
2021/08/07 05:59:54;;;;;;;9.48;2.80;;;;;;;;;;5113539;28;20020;-69
2021/08/07 06:02:20;;;;;;;10.07;2.20;;;;;;;;;;5112949;28;20020;-69
2021/08/07 06:04:46;;;;;;;9.48;2.85;;;;;;;;;;5110183;28;20102;-70
2021/08/07 06:07:12;;;;;;;5.57;2.28;;;;;;;;;;5109626;28;20475;-70
2021/08/07 06:09:38;;;;;;;5.00;2.92;;;;;;;;;;5111009;28;20441;-70
2021/08/07 06:12:04;;;;;;;6.18;2.42;;;;;;;;;;5112416;28;20464;-69
2021/08/07 06:14:30;;;;;;;7.97;2.35;;;;;;;;;;5112035;28;20114;-69
2021/08/07 06:16:56;;;;;;;5.72;2.70;;;;;;;;;;5113158;28;20100;-69
2021/08/07 06:19:23;;;;;;;8.85;2.22;;;;;;;;;;5111400;28;20030;-71
2021/08/07 06:21:49;;;;;;;8.23;2.72;;;;;;;;;;5111994;28;20027;-69
2021/08/07 06:24:15;;;;;;;7.43;2.50;;;;;;;;;;5111917;28;20096;-69
2021/08/07 06:26:43;;;;;;;5.32;2.22;;;;;;;;;;5112498;28;20098;-70
2021/08/07 06:29:09;;;;;;;6.82;2.30;;;;;;;;;;5112831;28;20476;-70
2021/08/07 06:31:35;;;;;;;6.82;2.97;;;;;;;;;;5113074;28;20088;-70
2021/08/07 06:34:02;;;;;;;7.35;2.50;;;;;;;;;;5113396;28;20032;-70
2021/08/07 06:36:29;;;;;;;8.48;2.50;;;;;;;;;;5113201;28;20024;-71
2021/08/07 06:38:55;;;;;;;6.65;2.42;;;;;;;;;;5113179;28;20043;-71
2021/08/07 06:41:21;;;;;;;7.85;2.70;;;;;;;;;;5113215;28;20024;-74
2021/08/07 06:43:47;;;;;;;5.88;2.47;;;;;;;;;;5113104;28;20044;-72
2021/08/07 06:46:13;;;;;;;7.95;2.58;;;;;;;;;;5113699;28;20034;-71
2021/08/07 06:48:39;;;;;;;4.90;2.20;;;;;;;;;;5113837;28;20036;-75
2021/08/07 06:51:05;;;;;;;6.95;3.00;;;;;;;;;;5112714;28;20081;-74
2021/08/07 06:53:32;;;;;;;5.75;2.47;;;;;;;;;;5112325;28;20449;-72
2021/08/07 06:55:58;;;;;;;7.40;2.97;;;;;;;;;;5112290;28;20020;-76
2021/08/07 06:58:24;;;;;;;9.68;2.88;;;;;;;;;;5112400;28;20038;-76
2021/08/07 07:00:50;;;;;;;10.32;2.88;;;;;;;;;;5112713;28;20456;-76
2021/08/07 07:03:16;;;;;;;11.95;2.67;;;;;;;;;;5116633;28;20443;-75
2021/08/07 07:05:42;;;;;;;8.15;2.60;;;;;;;;;;5115769;28;20065;-74
2021/08/07 07:08:08;;;;;;;7.20;2.65;;;;;;;;;;5116860;28;20041;-76
2021/08/07 07:10:34;;;;;;;8.32;2.80;;;;;;;;;;5117063;28;20091;-75
2021/08/07 07:13:01;;;;;;;5.82;2.47;;;;;;;;;;5116859;28;20044;-76
2021/08/07 07:15:27;;;;;;;10.63;2.67;;;;;;;;;;5116862;28;20026;-75
2021/08/07 07:17:53;;;;;;;5.60;2.40;;;;;;;;;;5116707;28;20110;-75
2021/08/07 07:20:21;;;;;;;6.15;2.60;;;;;;;;;;5116840;28;20016;-76
2021/08/07 07:22:47;;;;;;;6.75;2.40;;;;;;;;;;5116931;28;20023;-75
2021/08/07 07:25:14;;;;;;;7.68;2.30;;;;;;;;;;5116650;28;20019;-76
2021/08/07 07:27:40;;;;;;;7.60;2.65;;;;;;;;;;5116536;28;20140;-74
2021/08/07 07:30:07;;;;;;;9.00;2.28;;;;;;;;;;5116732;28;20041;-76
2021/08/07 07:32:33;;;;;;;8.57;2.33;;;;;;;;;;5116771;28;20020;-76
2021/08/07 07:35:00;;;;;;;7.45;2.20;;;;;;;;;;5116572;28;20057;-77
2021/08/07 07:37:26;;;;;;;9.25;2.50;;;;;;;;;;5116731;28;20077;-76
2021/08/07 07:39:52;;;;;;;11.05;2.38;;;;;;;;;;5116580;28;20098;-76
2021/08/07 07:42:19;;;;;;;9.48;2.72;;;;;;;;;;5116973;28;20375;-75
2021/08/07 07:44:45;;;;;;;8.43;2.22;;;;;;;;;;5116497;28;20133;-75
2021/08/07 07:47:11;;;;;;;7.03;2.40;;;;;;;;;;5116401;28;20016;-76
2021/08/07 07:49:37;;;;;;;7.38;2.25;;;;;;;;;;5116273;28;20028;-75
2021/08/07 07:52:03;;;;;;;7.80;2.67;;;;;;;;;;5116308;28;20031;-75
2021/08/07 07:54:29;;;;;;;5.85;2.33;;;;;;;;;;5116384;28;20144;-75
2021/08/07 07:56:55;;;;;;;6.05;2.30;;;;;;;;;;5116286;28;20107;-75
2021/08/07 07:59:21;;;;;;;5.78;2.17;;;;;;;;;;5116085;28;20031;-76
2021/08/07 08:01:47;;;;;;;7.88;2.67;;;;;;;;;;5116419;28;20080;-75
2021/08/07 08:04:13;;;;;;;7.13;2.28;;;;;;;;;;5115926;28;20375;-75
2021/08/07 08:06:39;;;;;;;8.45;2.50;;;;;;;;;;5115797;28;20125;-76
2021/08/07 08:09:05;;;;;;;7.15;2.38;;;;;;;;;;5115860;28;20152;-75
2021/08/07 08:11:32;;;;;;;6.95;2.40;;;;;;;;;;5116082;28;20073;-76
2021/08/07 08:13:58;;;;;;;5.05;2.15;;;;;;;;;;5115009;28;20126;-76
2021/08/07 08:16:24;;;;;;;8.73;2.17;;;;;;;;;;5115843;28;20032;-75
2021/08/07 08:18:50;;;;;;;6.63;2.00;;;;;;;;;;5116483;28;20015;-75
2021/08/07 08:21:17;;;;;;;5.50;2.17;;;;;;;;;;5115811;28;20472;-75
2021/08/07 08:23:43;;;;;;;5.45;2.10;;;;;;;;;;5115891;28;20015;-76
2021/08/07 08:26:09;;;;;;;6.55;1.85;;;;;;;;;;5115664;28;20028;-76
2021/08/07 08:28:35;;;;;;;9.43;2.20;;;;;;;;;;5115322;28;20035;-76
2021/08/07 08:31:01;;;;;;;7.65;2.42;;;;;;;;;;5115807;28;20020;-76
2021/08/07 08:33:27;;;;;;;8.32;2.10;;;;;;;;;;5115689;28;20028;-75
2021/08/07 08:35:53;;;;;;;5.82;2.13;;;;;;;;;;5115581;28;20099;-76
2021/08/07 08:38:19;;;;;;;6.30;2.13;;;;;;;;;;5115467;28;20076;-75
2021/08/07 08:40:45;;;;;;;4.80;2.17;;;;;;;;;;5115052;28;20051;-75
2021/08/07 08:43:11;;;;;;;4.82;1.92;;;;;;;;;;5115314;28;20027;-75
2021/08/07 08:45:38;;;;;;;6.53;2.33;;;;;;;;;;5115189;28;20058;-76
2021/08/07 08:48:04;;;;;;;3.95;1.98;;;;;;;;;;5115014;28;20039;-76
2021/08/07 08:50:30;;;;;;;8.85;2.30;;;;;;;;;;5115047;28;20357;-76
2021/08/07 08:52:57;;;;;;;8.10;2.35;;;;;;;;;;5115174;28;20023;-75
2021/08/07 08:55:23;;;;;;;8.13;2.20;;;;;;;;;;5115450;28;20027;-76
2021/08/07 08:57:49;;;;;;;9.75;2.30;;;;;;;;;;5115093;28;20028;-76
2021/08/07 09:00:15;;;;;;;8.43;2.17;;;;;;;;;;5114752;28;20102;-74
2021/08/07 09:02:42;;;;;;;8.43;2.40;;;;;;;;;;5115205;28;20030;-77
2021/08/07 09:05:10;;;;;;;5.90;2.10;;;;;;;;;;5115121;28;20115;-76
2021/08/07 09:07:36;;;;;;;4.60;2.30;;;;;;;;;;5114768;28;20038;-75
2021/08/07 09:10:03;;;;;;;4.60;2.15;;;;;;;;;;5114818;28;20030;-76
2021/08/07 09:12:49;;;;;;;7.80;2.40;;;;;;;;;;5114616;28;20020;-75
2021/08/07 09:15:34;;;;;;;3.78;1.80;;;;;;;;;;5114887;28;20381;-75
2021/08/07 09:18:29;;;;;;;6.15;2.13;;;;;;;;;;5114853;28;20404;-76
2021/08/07 09:20:55;;;;;;;10.00;2.17;;;;;;;;;;5101619;27;20096;-75
2021/08/07 09:23:30;;;;;;;9.68;2.15;;;;;;;;;;5114223;28;20047;-76
2021/08/07 09:25:56;;;;;;;6.18;1.92;;;;;;;;;;5113916;28;20460;-76
2021/08/07 09:28:22;;;;;;;7.25;2.10;;;;;;;;;;5114367;28;20476;-76
2021/08/07 09:30:48;;;;;;;7.38;2.08;;;;;;;;;;5114529;28;20024;-76
2021/08/07 09:33:24;;;;;;;4.93;2.05;;;;;;;;;;5114425;28;20043;-76
2021/08/07 09:35:50;;;;;;;5.80;2.17;;;;;;;;;;5114321;28;20436;-76
2021/08/07 09:38:22;;;;;;;8.57;2.30;;;;;;;;;;5114369;28;20066;-76
2021/08/07 09:40:57;;;;;;;7.82;2.20;;;;;;;;;;5114384;28;20051;-76
2021/08/07 09:43:28;;;;;;;5.55;1.67;;;;;;;;;;5114196;28;20034;-76
2021/08/07 09:46:07;;;;;;;4.57;2.30;;;;;;;;;;5114085;28;20386;-75
2021/08/07 09:48:34;;;;;;;6.03;1.90;;;;;;;;;;5113987;28;20085;-76
2021/08/07 09:51:00;;;;;;;6.82;2.05;;;;;;;;;;5112905;28;20016;-76
2021/08/07 09:53:28;;;;;;;7.78;2.30;;;;;;;;;;5113990;28;20082;-76
2021/08/07 09:56:01;;;;;;;5.65;2.28;;;;;;;;;;5114089;28;20020;-76
2021/08/07 09:58:27;;;;;;;7.30;2.20;;;;;;;;;;5113940;28;20088;-76
2021/08/07 10:00:53;;;;;;;5.72;2.30;;;;;;;;;;5113988;28;20360;-76
2021/08/07 10:03:21;;;;;;;8.27;2.10;;;;;;;;;;5113902;28;20028;-74
2021/08/07 10:05:48;;;;;;;6.03;2.40;;;;;;;;;;5113710;28;20032;-77
2021/08/07 10:08:15;;;;;;;9.35;2.78;;;;;;;;;;5113664;28;20068;-76
2021/08/07 10:10:42;;;;;;;5.53;2.25;;;;;;;;;;5113931;28;20027;-75
2021/08/07 10:13:09;;;;;;;8.27;2.33;;;;;;;;;;5113466;28;20047;-76
2021/08/07 10:15:37;;;;;;;6.43;2.10;;;;;;;;;;5113655;28;20020;-75
2021/08/07 10:18:03;;;;;;;4.82;2.10;;;;;;;;;;5113639;28;20057;-75
2021/08/07 10:20:30;;;;;;;5.72;2.22;;;;;;;;;;5113733;28;20098;-76
2021/08/07 10:22:58;;;;;;;5.57;2.40;;;;;;;;;;5113693;28;20077;-76
2021/08/07 10:25:24;;;;;;;8.05;2.22;;;;;;;;;;5113719;28;20107;-76
2021/08/07 10:27:56;;;;;;;8.18;2.13;;;;;;;;;;5113663;28;20027;-75
2021/08/07 10:30:22;;;;;;;5.80;2.20;;;;;;;;;;5113917;28;20038;-76
2021/08/07 10:32:49;;;;;;;7.97;2.28;;;;;;;;;;5113657;28;20032;-71
2021/08/07 10:35:16;;;;;;;8.82;2.47;;;;;;;;;;5113829;28;20488;-74
2021/08/07 10:37:42;;;;;;;5.82;2.10;;;;;;;;;;5117901;28;20080;-74
2021/08/07 10:40:09;;;;;;;5.80;2.40;;;;;;;;;;5117590;28;20028;-74
2021/08/07 10:42:37;;;;;;;6.15;2.13;;;;;;;;;;5117870;28;20031;-74
2021/08/07 10:45:07;;;;;;;4.70;2.30;;;;;;;;;;5117621;28;20456;-75
2021/08/07 10:47:39;;;;;;;7.47;2.20;;;;;;;;;;5117359;28;20045;-76
2021/08/07 10:50:24;;;;;;;8.52;2.08;;;;;;;;;;5117409;28;20099;-75
2021/08/07 10:52:50;;;;;;;4.93;2.30;;;;;;;;;;5117545;28;20015;-75
2021/08/07 10:55:34;;;;;;;9.73;2.60;;;;;;;;;;5117305;28;20031;-74
2021/08/07 10:58:01;;;;;;;7.93;2.45;;;;;;;;;;5117536;28;20107;-75
2021/08/07 11:00:27;;;;;;;6.05;2.35;;;;;;;;;;5117210;28;20024;-74
2021/08/07 11:03:13;;;;;;;9.32;2.22;;;;;;;;;;5117378;28;20028;-75
2021/08/07 11:05:49;;;;;;;10.02;2.33;;;;;;;;;;5117341;28;20020;-74
2021/08/07 11:08:15;;;;;;;7.78;2.40;;;;;;;;;;5116987;28;20114;-75
2021/08/07 11:10:41;;;;;;;5.35;2.30;;;;;;;;;;5117044;28;20024;-76
2021/08/07 11:13:26;;;;;;;4.88;2.22;;;;;;;;;;5117019;28;20051;-75
2021/08/07 11:16:19;;;;;;;8.48;2.40;;;;;;;;;;5116785;28;20028;-75
2021/08/07 11:18:45;;;;;;;7.10;2.28;;;;;;;;;;5114211;28;20047;-75
2021/08/07 11:21:30;;;;;;;4.22;2.10;;;;;;;;;;5117011;28;20046;-75
2021/08/07 11:23:56;;;;;;;4.93;2.08;;;;;;;;;;5116811;28;20107;-74
2021/08/07 11:26:42;;;;;;;8.82;2.40;;;;;;;;;;5116710;28;20027;-75
2021/08/07 11:29:09;;;;;;;8.00;2.65;;;;;;;;;;5116667;28;20450;-75
2021/08/07 11:31:35;;;;;;;8.85;2.22;;;;;;;;;;5116680;28;20035;-76
2021/08/07 11:34:20;;;;;;;8.45;2.22;;;;;;;;;;5116783;28;20028;-75
2021/08/07 11:37:25;;;;;;;5.97;2.35;;;;;;;;;;5116655;28;20093;-76
2021/08/07 11:40:05;;;;;;;9.45;2.22;;;;;;;;;;5053831;28;20159;-75
2021/08/07 11:42:44;;;;;;;10.57;2.10;;;;;;;;;;5053593;28;20025;-75
2021/08/07 11:45:10;;;;;;;7.53;2.28;;;;;;;;;;5094717;28;20038;-74
2021/08/07 11:47:44;;;;;;;7.93;2.20;;;;;;;;;;5115379;28;20019;-75
2021/08/07 11:50:10;;;;;;;8.07;2.38;;;;;;;;;;5116200;28;20036;-75
2021/08/07 11:52:37;;;;;;;8.35;2.20;;;;;;;;;;5116116;28;20030;-74
2021/08/07 11:55:04;;;;;;;7.90;2.45;;;;;;;;;;5116068;28;20517;-75
2021/08/07 11:57:30;;;;;;;7.32;2.10;;;;;;;;;;5116534;28;20372;-75
2021/08/07 12:00:16;;;;;;;8.32;2.60;;;;;;;;;;5116242;28;20031;-75
2021/08/07 12:02:42;;;;;;;9.63;2.25;;;;;;;;;;5116059;28;20156;-75
2021/08/07 12:05:08;;;;;;;7.38;2.15;;;;;;;;;;5115962;28;20077;-75
2021/08/07 12:07:35;;;;;;;4.85;2.30;;;;;;;;;;5115811;28;20080;-75
2021/08/07 12:10:05;;;;;;;7.93;2.17;;;;;;;;;;5115838;28;20067;-75
2021/08/07 12:12:31;;;;;;;6.07;2.15;;;;;;;;;;5115715;28;20047;-75
2021/08/07 12:14:57;;;;;;;6.55;2.55;;;;;;;;;;5115475;28;20476;-74
2021/08/07 12:17:24;;;;;;;6.93;1.90;;;;;;;;;;5115728;28;20368;-76
2021/08/07 12:19:59;;;;;;;5.10;1.75;;;;;;;;;;5115960;28;20543;-75
2021/08/07 12:22:25;;;;;;;4.75;1.90;;;;;;;;;;5115790;28;20045;-75
2021/08/07 12:25:04;;;;;;;5.15;2.22;;;;;;;;;;5115797;28;20461;-75
2021/08/07 12:27:30;;;;;;;6.28;1.98;;;;;;;;;;5115560;28;20122;-75
2021/08/07 12:30:05;;;;;;;6.28;1.90;;;;;;;;;;5115582;28;20533;-75
2021/08/07 12:32:31;;;;;;;9.18;1.60;;;;;;;;;;5115652;28;20073;-75
2021/08/07 12:34:57;;;;;;;4.18;1.92;;;;;;;;;;5115353;28;20016;-75
2021/08/07 12:37:23;;;;;;;5.35;1.70;;;;;;;;;;5115527;28;20024;-75
2021/08/07 12:39:53;;;;;;;7.25;1.98;;;;;;;;;;5115360;28;20024;-75
2021/08/07 12:42:21;;;;;;;4.70;1.67;;;;;;;;;;5115359;28;20028;-75
2021/08/07 12:45:03;;;;;;;6.43;1.90;;;;;;;;;;5115250;28;20058;-75
2021/08/07 12:47:30;;;;;;;9.60;2.00;;;;;;;;;;5115089;28;20053;-75
2021/08/07 12:49:56;;;;;;;5.05;1.92;;;;;;;;;;5115397;28;20028;-75
2021/08/07 12:52:22;;;;;;;7.00;2.13;;;;;;;;;;5114626;28;20380;-74
2021/08/07 12:55:08;;;;;;;4.35;2.03;;;;;;;;;;5110843;28;20028;-77
2021/08/07 12:57:34;;;;;;;8.00;2.10;;;;;;;;;;5111957;28;20024;-75
2021/08/07 13:00:00;;;;;;;9.00;2.38;;;;;;;;;;5113089;28;20064;-76
2021/08/07 13:02:26;;;;;;;4.40;1.83;;;;;;;;;;5114769;28;20448;-76
2021/08/07 13:04:53;;;;;;;7.13;2.20;;;;;;;;;;5114427;28;20024;-76
2021/08/07 13:07:31;;;;;;;4.75;1.88;;;;;;;;;;5114511;28;20540;-79
2021/08/07 13:10:16;;;;;;;7.88;1.90;;;;;;;;;;5114740;28;20015;-75
2021/08/07 13:12:43;;;;;;;6.20;2.05;;;;;;;;;;5114164;28;20066;-75
2021/08/07 13:15:09;;;;;;;9.43;2.13;;;;;;;;;;5113686;28;20031;-77
2021/08/07 13:17:36;;;;;;;9.55;2.47;;;;;;;;;;5114241;28;20055;-75
2021/08/07 13:20:03;;;;;;;8.45;2.10;;;;;;;;;;5114055;28;20054;-75
2021/08/07 13:22:29;;;;;;;7.80;2.13;;;;;;;;;;5113797;28;20027;-72
2021/08/07 13:24:57;;;;;;;8.57;2.20;;;;;;;;;;5112641;28;20024;-73
2021/08/07 13:27:34;;;;;;;4.80;2.25;;;;;;;;;;5113964;28;20024;-67
2021/08/07 13:30:00;;;;;;;11.07;2.20;;;;;;;;;;5113725;28;20026;-73
2021/08/07 13:32:30;;;;;;;6.47;2.10;;;;;;;;;;5114005;28;20020;-78
2021/08/07 13:34:57;;;;;;;6.78;1.80;;;;;;;;;;5114068;28;20024;-76
2021/08/07 13:37:24;;;;;;;4.47;2.17;;;;;;;;;;5114407;28;20031;-74
2021/08/07 13:39:50;;;;;;;4.50;1.65;;;;;;;;;;5113140;28;20106;-79
2021/08/07 13:42:17;;;;;;;5.38;2.63;;;;;;;;;;5111295;28;20521;-78
2021/08/07 13:44:43;;;;;;;5.50;2.08;;;;;;;;;;5111159;28;20031;-76
2021/08/07 13:47:09;;;;;;;4.57;1.85;;;;;;;;;;5113784;28;20526;-78
2021/08/07 13:49:35;;;;;;;6.57;1.83;;;;;;;;;;5113982;28;20031;-76
2021/08/07 13:52:02;;;;;;;7.88;2.00;;;;;;;;;;5113813;28;20024;-78
2021/08/07 13:54:28;;;;;;;8.68;2.03;;;;;;;;;;5113935;28;20032;-77
2021/08/07 13:56:54;;;;;;;7.18;1.85;;;;;;;;;;5113923;28;20165;-78
2021/08/07 13:59:20;;;;;;;7.25;2.53;;;;;;;;;;5113699;28;20540;-74
2021/08/07 14:01:46;;;;;;;6.88;2.08;;;;;;;;;;5113579;28;20027;-77
2021/08/07 14:04:12;;;;;;;9.43;2.40;;;;;;;;;;5113879;28;20107;-76
2021/08/07 14:06:38;;;;;;;5.63;1.75;;;;;;;;;;5113792;28;20023;-76
2021/08/07 14:09:04;;;;;;;6.00;2.15;;;;;;;;;;5113517;28;20040;-76
2021/08/07 14:11:30;;;;;;;5.03;1.92;;;;;;;;;;5113261;28;20028;-77
2021/08/07 14:13:56;;;;;;;4.78;2.60;;;;;;;;;;5113351;28;20051;-77
2021/08/07 14:16:22;;;;;;;6.00;2.55;;;;;;;;;;5113440;28;20099;-76
2021/08/07 14:18:48;;;;;;;14.38;2.70;;;;;;;;;;5113443;28;20384;-77
2021/08/07 14:21:14;;;;;;;8.32;1.92;;;;;;;;;;5113551;28;20031;-77
2021/08/07 14:23:40;;;;;;;6.13;1.85;;;;;;;;;;5113559;28;20016;-78
2021/08/07 14:26:07;;;;;;;5.78;2.00;;;;;;;;;;5113707;28;20026;-75
2021/08/07 14:28:33;;;;;;;7.50;2.08;;;;;;;;;;5113610;28;20392;-78
2021/08/07 14:30:59;;;;;;;5.60;1.95;;;;;;;;;;5113678;28;20384;-77
2021/08/07 14:33:26;;;;;;;8.13;2.00;;;;;;;;;;5110767;28;20026;-78
2021/08/07 14:35:52;;;;;;;8.15;2.30;;;;;;;;;;5110299;28;20024;-75
2021/08/07 14:38:18;;;;;;;8.77;2.15;;;;;;;;;;5111564;28;20055;-76
2021/08/07 14:40:44;;;;;;;11.15;2.38;;;;;;;;;;5113155;28;20099;-74
2021/08/07 14:43:11;;;;;;;11.02;2.38;;;;;;;;;;5111928;28;20023;-78
2021/08/07 14:45:38;;;;;;;4.53;1.80;;;;;;;;;;5113278;28;20052;-77